Time;durP1;ratioP1;P1;durP2;ratioP2;P2;SDS_P1;SDS_P2;PMS_P1;PMS_P2;Temp;Humidity;BMP_temperature;BMP_pressure;BME280_temperature;BME280_humidity;BME280_pressure;Samples;Min_cycle;Max_cycle;Signal;HPM_P1;HPM_P2
2024/03/01 00:00:36;;;;;;;0.10;0.10;;;;;;;11.47;78.30;100141.53;5098027;28;20531;-80
2024/03/01 00:03:03;;;;;;;0.10;0.10;;;;;;;11.48;78.50;100131.81;5088188;28;20021;-80
2024/03/01 00:05:30;;;;;;;0.10;0.10;;;;;;;11.54;78.32;100133.38;5096717;28;20035;-80
2024/03/01 00:07:57;;;;;;;0.10;0.10;;;;;;;11.50;78.51;100135.25;5099313;28;20040;-79
2024/03/01 00:10:24;;;;;;;0.20;0.20;;;;;;;11.51;78.14;100137.00;5082381;28;20040;-80
2024/03/01 00:12:50;;;;;;;0.73;0.73;;;;;;;11.51;77.81;100130.84;5089855;28;20111;-80
2024/03/01 00:15:17;;;;;;;0.40;0.40;;;;;;;11.49;78.07;100129.09;5095475;28;20134;-79
2024/03/01 00:17:46;;;;;;;0.30;0.30;;;;;;;11.51;78.35;100129.03;5090391;28;20041;-79
2024/03/01 00:20:12;;;;;;;0.20;0.20;;;;;;;11.58;78.08;100130.56;5087939;28;20028;-79
2024/03/01 00:22:38;;;;;;;0.10;0.10;;;;;;;11.52;77.90;100127.28;5095663;28;20024;-80
2024/03/01 00:25:08;;;;;;;0.10;0.10;;;;;;;11.53;77.93;100129.00;5098656;28;20035;-79
2024/03/01 00:27:34;;;;;;;0.10;0.10;;;;;;;11.61;78.26;100127.81;5091577;28;20039;-80
2024/03/01 00:30:00;;;;;;;0.60;0.60;;;;;;;11.56;78.45;100113.81;5091972;28;20482;-80
2024/03/01 00:32:27;;;;;;;0.25;0.25;;;;;;;11.59;77.98;100113.72;5085540;28;20024;-79
2024/03/01 00:34:53;;;;;;;0.15;0.15;;;;;;;11.56;77.68;100113.81;5096491;28;20028;-81
2024/03/01 00:37:19;;;;;;;0.15;0.15;;;;;;;11.53;77.82;100115.75;5094741;28;20070;-79
2024/03/01 00:39:45;;;;;;;0.10;0.10;;;;;;;11.51;77.61;100114.94;5092751;28;20027;-79
2024/03/01 00:42:12;;;;;;;0.10;0.10;;;;;;;11.53;77.28;100116.59;5093079;28;20031;-79
2024/03/01 00:44:38;;;;;;;2.28;2.15;;;;;;;11.49;77.31;100107.03;5094785;28;20043;-79
2024/03/01 00:47:04;;;;;;;0.10;0.10;;;;;;;11.45;77.32;100108.03;5084484;28;20522;-79
2024/03/01 00:49:30;;;;;;;0.10;0.10;;;;;;;11.44;77.15;100104.53;5092954;28;20039;-80
2024/03/01 00:51:56;;;;;;;0.85;0.85;;;;;;;11.45;77.52;100105.38;5096198;28;20588;-79
2024/03/01 00:54:23;;;;;;;0.17;0.17;;;;;;;11.47;77.68;100101.75;5096799;28;20106;-79
2024/03/01 00:56:49;;;;;;;0.13;0.13;;;;;;;11.47;77.15;100099.09;5096423;28;20022;-79
2024/03/01 00:59:15;;;;;;;0.40;0.40;;;;;;;11.51;77.41;100094.56;5097080;28;20042;-79
2024/03/01 01:01:41;;;;;;;0.10;0.10;;;;;;;11.52;77.43;100100.75;5097274;28;20100;-79
2024/03/01 01:04:07;;;;;;;0.38;0.38;;;;;;;11.51;77.39;100093.69;5097478;28;20218;-79
2024/03/01 01:06:34;;;;;;;0.10;0.10;;;;;;;11.51;77.76;100094.56;5096515;28;20077;-80
2024/03/01 01:09:01;;;;;;;0.73;0.73;;;;;;;11.53;76.97;100089.22;5096697;28;20024;-80
2024/03/01 01:11:28;;;;;;;0.10;0.10;;;;;;;11.51;77.14;100085.75;5096609;28;20060;-80
2024/03/01 01:13:56;;;;;;;0.10;0.10;;;;;;;11.51;77.41;100078.63;5097164;28;20020;-79
2024/03/01 01:16:23;;;;;;;0.15;0.15;;;;;;;11.50;77.75;100082.22;5088538;28;20024;-79
2024/03/01 01:18:49;;;;;;;0.22;0.22;;;;;;;11.59;77.26;100073.94;5097675;28;20020;-80
2024/03/01 01:21:15;;;;;;;0.10;0.10;;;;;;;11.56;77.36;100076.69;5096814;28;20501;-79
2024/03/01 01:23:41;;;;;;;0.10;0.10;;;;;;;11.58;77.55;100074.84;5096944;28;20032;-80
2024/03/01 01:26:07;;;;;;;0.10;0.10;;;;;;;11.60;77.22;100073.00;5097176;28;20043;-80
2024/03/01 01:28:34;;;;;;;0.35;0.35;;;;;;;11.60;77.58;100067.72;5098137;28;20032;-79
2024/03/01 01:31:00;;;;;;;0.20;0.20;;;;;;;11.65;77.11;100067.50;5097605;28;20407;-79
2024/03/01 01:33:26;;;;;;;0.10;0.10;;;;;;;11.60;77.81;100061.50;5080663;28;20028;-80
2024/03/01 01:35:52;;;;;;;0.10;0.10;;;;;;;11.59;76.99;100050.06;5093188;28;20035;-80
2024/03/01 01:38:19;;;;;;;0.10;0.10;;;;;;;11.68;77.45;100048.84;5095268;28;20058;-79
2024/03/01 01:40:46;;;;;;;0.10;0.10;;;;;;;11.63;77.17;100056.13;5094993;28;20391;-79
2024/03/01 01:43:12;;;;;;;0.10;0.10;;;;;;;11.63;76.89;100046.34;5085198;28;20107;-79
2024/03/01 01:45:38;;;;;;;0.20;0.20;;;;;;;11.54;77.31;100040.50;5097062;28;20101;-79
2024/03/01 01:48:05;;;;;;;0.20;0.20;;;;;;;11.60;76.84;100041.19;5100231;28;20031;-80
2024/03/01 01:50:35;;;;;;;0.10;0.10;;;;;;;11.63;77.21;100029.59;5100167;28;20036;-80
2024/03/01 01:53:03;;;;;;;0.17;0.17;;;;;;;11.68;77.22;100026.75;5101328;28;20433;-80
2024/03/01 01:55:30;;;;;;;0.70;0.65;;;;;;;11.67;77.13;100025.03;5099502;28;20487;-80
2024/03/01 01:57:56;;;;;;;0.13;0.13;;;;;;;11.65;76.76;100022.41;5085569;28;20440;-80
2024/03/01 02:00:22;;;;;;;0.10;0.10;;;;;;;11.64;77.23;100020.69;5100194;28;20035;-80
2024/03/01 02:02:50;;;;;;;0.17;0.17;;;;;;;11.68;77.26;100013.50;5088519;28;20035;-80
2024/03/01 02:05:18;;;;;;;0.38;0.38;;;;;;;11.68;77.24;100010.84;5088627;28;20647;-80
2024/03/01 02:07:45;;;;;;;0.10;0.10;;;;;;;11.68;77.31;100010.84;5083970;28;20492;-81
2024/03/01 02:10:16;;;;;;;0.30;0.30;;;;;;;11.64;76.75;100007.44;5095455;28;20487;-81
2024/03/01 02:15:32;;;;;;;0.20;0.20;;;;;;;11.69;77.25;100001.94;5121490;27;1235401;-80
2024/03/01 02:17:58;;;;;;;0.90;0.63;;;;;;;11.72;77.18;100001.81;5123840;28;20036;-80
2024/03/01 02:20:27;;;;;;;0.20;0.20;;;;;;;11.71;77.00;99997.44;5117095;28;20582;-80
2024/03/01 02:23:00;;;;;;;0.45;0.45;;;;;;;11.75;77.11;100007.00;5104137;28;20032;-79
2024/03/01 02:25:26;;;;;;;0.10;0.10;;;;;;;11.67;76.97;100004.66;5095613;28;20012;-80
2024/03/01 02:27:52;;;;;;;0.10;0.10;;;;;;;11.71;76.82;99989.47;5099686;28;20023;-80
2024/03/01 02:30:19;;;;;;;0.20;0.20;;;;;;;11.73;77.48;99991.16;5107987;28;20143;-80
2024/03/01 02:32:47;;;;;;;0.43;0.43;;;;;;;11.75;77.72;99999.03;5106979;28;20098;-80
2024/03/01 02:35:13;;;;;;;0.10;0.10;;;;;;;11.67;77.23;100025.03;5100397;28;20104;-80
2024/03/01 02:37:42;;;;;;;1.75;0.52;;;;;;;11.63;77.99;100035.75;5099610;28;20047;-79
2024/03/01 02:40:09;;;;;;;0.50;0.50;;;;;;;11.46;77.43;100047.00;5110776;28;20029;-79
2024/03/01 02:42:35;;;;;;;0.17;0.17;;;;;;;11.23;75.99;100074.31;5095857;28;20471;-80
2024/03/01 02:45:03;;;;;;;0.30;0.30;;;;;;;10.87;75.47;100074.66;5096580;28;20020;-79
2024/03/01 02:47:29;;;;;;;0.10;0.10;;;;;;;10.63;75.66;100089.59;5105474;28;20027;-80
2024/03/01 02:49:56;;;;;;;0.30;0.30;;;;;;;10.40;75.39;100085.03;5099170;28;20032;-79
2024/03/01 02:52:22;;;;;;;25.83;1.15;;;;;;;10.22;75.60;100076.72;5091415;28;20115;-78
2024/03/01 02:54:48;;;;;;;0.10;0.10;;;;;;;9.76;75.63;100104.53;5104068;28;20024;-78
2024/03/01 02:57:14;;;;;;;0.20;0.20;;;;;;;9.60;75.32;100104.97;5095881;28;20483;-79
2024/03/01 02:59:41;;;;;;;0.20;0.20;;;;;;;9.46;75.47;100113.28;5089812;28;20028;-79
2024/03/01 03:02:07;;;;;;;0.10;0.10;;;;;;;9.26;75.62;100119.13;5091519;28;20090;-78
2024/03/01 03:04:33;;;;;;;0.47;0.47;;;;;;;9.32;75.58;100124.25;5093357;28;20032;-80
2024/03/01 03:06:59;;;;;;;0.17;0.17;;;;;;;9.11;76.00;100125.66;5095367;28;20032;-80
2024/03/01 03:09:28;;;;;;;0.20;0.20;;;;;;;9.11;76.12;100135.34;5100067;28;20075;-79
2024/03/01 03:11:55;;;;;;;0.10;0.10;;;;;;;9.00;75.57;100133.84;5106421;28;20035;-79
2024/03/01 03:14:24;;;;;;;0.10;0.10;;;;;;;8.99;75.35;100137.41;5097370;28;20032;-80
2024/03/01 03:16:53;;;;;;;0.10;0.10;;;;;;;8.94;75.57;100138.44;5107502;28;20020;-79
2024/03/01 03:19:19;;;;;;;0.10;0.10;;;;;;;8.75;75.65;100136.25;5099999;28;20038;-79
2024/03/01 03:21:46;;;;;;;0.10;0.10;;;;;;;8.80;75.41;100142.28;5095268;28;20024;-80
2024/03/01 03:24:12;;;;;;;0.20;0.20;;;;;;;8.82;75.24;100151.03;5095898;28;20047;-80
2024/03/01 03:26:38;;;;;;;0.20;0.20;;;;;;;8.77;75.12;100157.31;5078839;28;20031;-79
2024/03/01 03:29:05;;;;;;;0.20;0.20;;;;;;;8.83;74.55;100159.81;5082353;28;20024;-78
2024/03/01 03:31:31;;;;;;;0.85;0.85;;;;;;;8.78;74.75;100165.19;5086557;28;20032;-78
2024/03/01 03:33:57;;;;;;;0.20;0.20;;;;;;;8.74;74.95;100167.03;5082039;28;20032;-79
2024/03/01 03:36:24;;;;;;;0.10;0.10;;;;;;;8.72;75.03;100171.50;5099501;28;20067;-79
2024/03/01 03:38:50;;;;;;;0.10;0.10;;;;;;;8.76;75.05;100182.00;5080605;28;20036;-80
2024/03/01 03:41:16;;;;;;;0.10;0.10;;;;;;;8.75;74.73;100175.84;5080686;28;20428;-79
2024/03/01 03:43:42;;;;;;;0.20;0.20;;;;;;;8.72;74.72;100179.44;5080629;28;20047;-79
2024/03/01 03:46:09;;;;;;;0.13;0.13;;;;;;;8.70;74.63;100183.88;5080091;28;20150;-80
2024/03/01 03:48:35;;;;;;;0.20;0.20;;;;;;;8.70;74.45;100183.03;5080807;28;20105;-80
2024/03/01 03:51:01;;;;;;;0.65;0.32;;;;;;;8.72;74.68;100195.28;5081020;28;20043;-80
2024/03/01 03:53:27;;;;;;;0.10;0.10;;;;;;;8.71;74.35;100201.47;5079729;28;20055;-80
2024/03/01 03:55:53;;;;;;;0.10;0.10;;;;;;;8.78;74.75;100201.31;5081424;28;20092;-80
2024/03/01 03:58:20;;;;;;;0.10;0.10;;;;;;;8.76;74.88;100203.13;5081497;28;20024;-80
2024/03/01 04:00:46;;;;;;;0.10;0.10;;;;;;;8.77;74.71;100205.72;5080679;28;20039;-79
2024/03/01 04:03:12;;;;;;;0.10;0.10;;;;;;;8.74;74.40;100200.53;5080281;28;20044;-80
2024/03/01 04:05:39;;;;;;;0.20;0.20;;;;;;;8.74;74.77;100211.09;5079340;28;20078;-79
2024/03/01 04:08:05;;;;;;;0.10;0.10;;;;;;;8.68;74.54;100220.00;5078886;28;20442;-80
2024/03/01 04:10:33;;;;;;;0.17;0.17;;;;;;;8.76;74.18;100216.31;5079161;28;20392;-79
2024/03/01 04:13:00;;;;;;;0.20;0.20;;;;;;;8.79;74.53;100217.13;5078757;28;20452;-78
2024/03/01 04:15:26;;;;;;;0.10;0.10;;;;;;;8.79;74.96;100217.13;5076786;28;20476;-78
2024/03/01 04:17:53;;;;;;;0.10;0.10;;;;;;;8.78;74.97;100223.31;5079885;28;20056;-80
2024/03/01 04:20:19;;;;;;;0.10;0.10;;;;;;;8.83;74.79;100233.78;5081551;28;20055;-79
2024/03/01 04:22:45;;;;;;;0.10;0.10;;;;;;;8.76;74.71;100237.47;5088996;28;20032;-80
2024/03/01 04:25:11;;;;;;;0.10;0.10;;;;;;;8.69;74.55;100236.75;5089162;28;20058;-79
2024/03/01 04:27:43;;;;;;;0.17;0.17;;;;;;;8.76;74.81;100237.47;5089890;28;20039;-79
2024/03/01 04:30:09;;;;;;;0.20;0.20;;;;;;;8.79;74.39;100237.41;5089926;28;20092;-79
2024/03/01 04:32:36;;;;;;;0.20;0.20;;;;;;;8.81;74.39;100235.56;5105768;28;20394;-79
2024/03/01 04:35:03;;;;;;;0.20;0.20;;;;;;;8.80;74.62;100247.94;5089216;28;20032;-79
2024/03/01 04:37:29;;;;;;;0.10;0.10;;;;;;;8.82;74.43;100250.53;5088634;28;20033;-79
2024/03/01 04:39:55;;;;;;;0.10;0.10;;;;;;;8.74;74.73;100254.19;5089576;28;20082;-79
2024/03/01 04:42:21;;;;;;;0.10;0.10;;;;;;;8.70;74.47;100256.97;5089085;28;20043;-79
2024/03/01 04:44:47;;;;;;;0.20;0.20;;;;;;;8.74;74.30;100254.19;5088462;28;20020;-79
2024/03/01 04:47:14;;;;;;;0.10;0.10;;;;;;;8.74;74.28;100253.34;5087556;28;20035;-79
2024/03/01 04:49:43;;;;;;;0.20;0.20;;;;;;;8.73;73.86;100263.06;5090690;28;20025;-80
2024/03/01 04:52:10;;;;;;;0.20;0.20;;;;;;;8.72;74.19;100257.78;5081646;28;20433;-80
2024/03/01 04:54:37;;;;;;;0.10;0.10;;;;;;;8.68;73.93;100256.13;5080597;28;20396;-80
2024/03/01 04:57:07;;;;;;;0.10;0.10;;;;;;;8.72;74.06;100255.16;5079564;28;20488;-80
2024/03/01 04:59:38;;;;;;;0.20;0.20;;;;;;;8.74;73.67;100259.50;5081906;28;20028;-80
2024/03/01 05:02:08;;;;;;;1.30;1.20;;;;;;;8.81;73.67;100265.53;5085859;28;20029;-80
2024/03/01 05:04:35;;;;;;;0.20;0.20;;;;;;;8.83;73.81;100262.84;5080159;28;20025;-80
2024/03/01 05:07:01;;;;;;;0.10;0.10;;;;;;;8.83;73.77;100273.41;5079067;28;20028;-80
2024/03/01 05:09:27;;;;;;;1.20;1.20;;;;;;;8.83;73.62;100268.13;5080225;28;20021;-80
2024/03/01 05:11:53;;;;;;;0.20;0.20;;;;;;;8.77;73.71;100270.91;5079811;28;20040;-80
2024/03/01 05:14:23;;;;;;;0.20;0.20;;;;;;;8.70;73.40;100275.47;5077210;28;20036;-80
2024/03/01 05:16:49;;;;;;;0.15;0.15;;;;;;;8.73;73.38;100276.25;5084348;28;20076;-79
2024/03/01 05:19:15;;;;;;;0.20;0.20;;;;;;;8.78;73.87;100283.22;5093330;28;20024;-79
2024/03/01 05:21:41;;;;;;;0.10;0.10;;;;;;;8.73;73.58;100275.38;5093791;28;20046;-79
2024/03/01 05:24:07;;;;;;;0.20;0.20;;;;;;;8.68;73.18;100274.63;5094049;28;20016;-79
2024/03/01 05:26:34;;;;;;;0.20;0.20;;;;;;;8.69;73.07;100277.22;5074208;28;20078;-79
2024/03/01 05:29:00;;;;;;;0.57;0.57;;;;;;;8.63;73.42;100282.63;5073746;28;20029;-79
2024/03/01 05:31:45;;;;;;;0.13;0.13;;;;;;;8.54;73.41;100291.59;5076041;28;20024;-79
2024/03/01 05:34:11;;;;;;;0.20;0.20;;;;;;;8.50;73.04;100289.06;5076267;28;20033;-79
2024/03/01 05:36:40;;;;;;;0.10;0.10;;;;;;;8.45;73.10;100293.53;5081437;28;20059;-80
2024/03/01 05:39:16;;;;;;;0.20;0.20;;;;;;;8.37;72.74;100298.97;5088350;28;20024;-80
2024/03/01 05:41:43;;;;;;;0.10;0.10;;;;;;;8.32;72.88;100301.69;5104188;28;20028;-80
2024/03/01 05:44:10;;;;;;;0.38;0.38;;;;;;;8.26;73.16;100304.44;5084819;28;20088;-80
2024/03/01 05:46:36;;;;;;;0.20;0.20;;;;;;;8.20;73.24;100307.19;5079745;28;20039;-79
2024/03/01 05:49:03;;;;;;;0.13;0.13;;;;;;;8.15;72.60;100309.94;5083889;28;20483;-79
2024/03/01 05:51:29;;;;;;;0.10;0.10;;;;;;;8.06;73.24;100310.97;5079815;28;20055;-80
2024/03/01 05:53:58;;;;;;;0.20;0.20;;;;;;;7.99;73.25;100312.00;5077746;28;20031;-80
2024/03/01 05:56:25;;;;;;;0.20;0.20;;;;;;;7.97;72.90;100305.84;5078327;28;20074;-80
2024/03/01 05:58:51;;;;;;;0.20;0.20;;;;;;;7.91;72.81;100316.50;5078905;28;20082;-80
2024/03/01 06:01:18;;;;;;;0.20;0.20;;;;;;;7.85;73.10;100324.53;5079030;28;20040;-80
2024/03/01 06:03:45;;;;;;;0.57;0.57;;;;;;;7.81;72.96;100328.97;5079068;28;20048;-80
2024/03/01 06:06:15;;;;;;;0.10;0.10;;;;;;;7.80;72.97;100335.19;5078023;28;20060;-79
2024/03/01 06:08:41;;;;;;;0.20;0.20;;;;;;;7.77;72.79;100333.44;5088449;28;20032;-80
2024/03/01 06:11:08;;;;;;;0.20;0.20;;;;;;;7.74;72.83;100338.78;5095797;28;20023;-78
2024/03/01 06:13:35;;;;;;;0.15;0.15;;;;;;;7.68;72.93;100352.06;5074789;28;20280;-78
2024/03/01 06:16:01;;;;;;;0.30;0.30;;;;;;;7.61;72.95;100353.06;5072032;28;20024;-79
2024/03/01 06:18:27;;;;;;;0.20;0.20;;;;;;;7.59;72.81;100346.94;5072766;28;20028;-78
2024/03/01 06:20:53;;;;;;;0.10;0.10;;;;;;;7.51;73.17;100354.09;5072499;28;20032;-77
2024/03/01 06:23:19;;;;;;;0.20;0.20;;;;;;;7.52;73.04;100350.56;5072422;28;20028;-77
2024/03/01 06:25:46;;;;;;;0.13;0.13;;;;;;;7.45;73.16;100353.31;5073079;28;20037;-77
2024/03/01 06:28:12;;;;;;;0.20;0.20;;;;;;;7.48;73.15;100351.50;5074746;28;20025;-77
2024/03/01 06:30:38;;;;;;;0.20;0.20;;;;;;;7.45;73.32;100350.66;5072814;28;20505;-78
2024/03/01 06:33:04;;;;;;;0.10;0.10;;;;;;;7.43;73.50;100344.53;5072633;28;20488;-78
2024/03/01 06:35:31;;;;;;;0.13;0.13;;;;;;;7.40;73.93;100352.50;5071876;28;20069;-79
2024/03/01 06:37:57;;;;;;;0.10;0.10;;;;;;;7.39;73.73;100358.66;5072649;28;20121;-78
2024/03/01 06:40:23;;;;;;;0.17;0.17;;;;;;;7.39;74.03;100349.88;5073073;28;20537;-78
2024/03/01 06:42:49;;;;;;;0.20;0.20;;;;;;;7.39;73.93;100348.13;5073301;28;20024;-78
2024/03/01 06:45:16;;;;;;;0.20;0.20;;;;;;;7.39;74.09;100356.03;5073076;28;20020;-78
2024/03/01 06:47:42;;;;;;;0.20;0.20;;;;;;;7.38;73.99;100350.78;5072902;28;20029;-78
2024/03/01 06:50:11;;;;;;;0.10;0.10;;;;;;;7.34;74.40;100349.94;5074150;28;20392;-79
2024/03/01 06:52:37;;;;;;;0.20;0.20;;;;;;;7.33;74.01;100348.22;5074587;28;20024;-78
2024/03/01 06:55:06;;;;;;;0.20;0.20;;;;;;;7.33;74.16;100347.31;5076075;28;20035;-79
2024/03/01 06:57:32;;;;;;;0.20;0.20;;;;;;;7.29;74.50;100347.38;5077111;28;20039;-79
2024/03/01 07:00:06;;;;;;;0.20;0.20;;;;;;;7.33;74.33;100348.22;5077442;28;20035;-78
2024/03/01 07:02:32;;;;;;;0.20;0.20;;;;;;;7.25;74.51;100350.97;5081026;28;20028;-79
2024/03/01 07:04:58;;;;;;;0.20;0.20;;;;;;;7.24;74.67;100353.59;5081247;28;20021;-78
2024/03/01 07:07:24;;;;;;;0.10;0.10;;;;;;;7.25;74.88;100352.69;5097938;28;20030;-79
2024/03/01 07:09:50;;;;;;;0.10;0.10;;;;;;;7.27;75.04;100345.66;5080446;28;20064;-79
2024/03/01 07:12:17;;;;;;;0.20;0.20;;;;;;;7.28;74.89;100355.31;5081865;28;20028;-79
2024/03/01 07:14:44;;;;;;;0.28;0.28;;;;;;;7.34;74.73;100347.31;5081359;28;20430;-80
2024/03/01 07:17:10;;;;;;;2.63;0.68;;;;;;;7.39;74.82;100355.13;5080953;28;20404;-79
2024/03/01 07:19:36;;;;;;;0.20;0.20;;;;;;;7.39;74.83;100352.50;5081741;28;20473;-80
2024/03/01 07:22:03;;;;;;;0.20;0.20;;;;;;;7.39;75.53;100348.13;5082457;28;20026;-78
2024/03/01 07:24:29;;;;;;;0.20;0.20;;;;;;;7.41;75.64;100351.63;5081519;28;20510;-80
2024/03/01 07:26:55;;;;;;;0.10;0.10;;;;;;;7.38;75.36;100341.09;5081167;28;20028;-80
2024/03/01 07:29:21;;;;;;;0.15;0.15;;;;;;;7.44;75.86;100341.00;5081654;28;20029;-80
2024/03/01 07:31:48;;;;;;;0.10;0.10;;;;;;;7.45;75.52;100337.47;5092649;28;20051;-80
2024/03/01 07:34:14;;;;;;;0.77;0.77;;;;;;;7.47;75.69;100340.09;5092658;28;20582;-80
2024/03/01 07:36:40;;;;;;;0.20;0.20;;;;;;;7.50;75.66;100333.91;5099423;28;20046;-79
2024/03/01 07:39:08;;;;;;;0.35;0.35;;;;;;;7.53;75.90;100331.22;5096881;28;20142;-80
2024/03/01 07:41:37;;;;;;;0.20;0.20;;;;;;;7.56;76.19;100339.06;5078097;28;20422;-79
2024/03/01 07:44:03;;;;;;;0.20;0.20;;;;;;;7.49;75.79;100337.41;5085850;28;20487;-78
2024/03/01 07:46:30;;;;;;;0.20;0.20;;;;;;;7.52;75.93;100337.38;5086189;28;20048;-78
2024/03/01 07:48:56;;;;;;;0.20;0.20;;;;;;;7.59;75.71;100331.13;5091106;28;20028;-79
2024/03/01 07:51:22;;;;;;;0.10;0.10;;;;;;;7.67;75.88;100331.84;5098092;28;20028;-77
2024/03/01 07:53:48;;;;;;;0.20;0.20;;;;;;;7.70;76.09;100333.56;5089238;28;20024;-80
2024/03/01 07:56:16;;;;;;;0.10;0.10;;;;;;;7.73;76.09;100326.47;5097454;28;20487;-80
2024/03/01 07:58:42;;;;;;;0.32;0.32;;;;;;;7.79;75.87;100330.81;5097186;28;20028;-80
2024/03/01 08:01:08;;;;;;;0.20;0.20;;;;;;;7.82;75.73;100338.66;5097521;28;20027;-79
2024/03/01 08:03:37;;;;;;;0.20;0.20;;;;;;;7.86;75.08;100343.00;5098233;28;20047;-79
2024/03/01 08:06:04;;;;;;;1.27;1.17;;;;;;;7.87;75.38;100349.97;5097227;28;20036;-80
2024/03/01 08:11:11;;;;;;;0.20;0.20;;;;;;;7.92;74.83;100352.56;5116374;27;20380;-79
2024/03/01 08:13:37;;;;;;;2.72;0.68;;;;;;;7.98;75.13;100351.59;5116685;28;20024;-79
2024/03/01 08:16:10;;;;;;;0.20;0.20;;;;;;;7.97;74.68;100344.56;5115693;28;20458;-80
2024/03/01 08:18:40;;;;;;;0.20;0.20;;;;;;;7.97;75.17;100334.88;5115184;28;20444;-80
2024/03/01 08:21:06;;;;;;;0.20;0.20;;;;;;;8.02;74.89;100348.84;5108738;28;20028;-79
2024/03/01 08:23:38;;;;;;;0.10;0.10;;;;;;;8.08;74.68;100346.09;5111178;28;20031;-79
2024/03/01 08:26:09;;;;;;;2.45;1.35;;;;;;;8.09;74.73;100339.94;5105180;28;20031;-78
2024/03/01 08:28:36;;;;;;;0.20;0.20;;;;;;;8.10;74.67;100333.75;5110240;28;20027;-78
2024/03/01 08:31:05;;;;;;;0.75;0.75;;;;;;;8.12;74.78;100349.56;5110294;28;20035;-78
2024/03/01 08:33:33;;;;;;;0.50;0.50;;;;;;;8.20;74.29;100349.41;5110147;28;20038;-79
2024/03/01 08:35:59;;;;;;;0.20;0.20;;;;;;;8.25;74.51;100347.59;5109529;28;20031;-78
2024/03/01 08:41:18;;;;;;;1.50;1.45;;;;;;;8.25;73.94;100347.59;5071716;28;20379;-79
2024/03/01 08:43:47;;;;;;;0.28;0.28;;;;;;;8.25;73.39;100355.50;5070206;28;20043;-79
2024/03/01 08:46:30;;;;;;;0.28;0.28;;;;;;;8.39;73.24;100348.19;5065125;28;20033;-79
2024/03/01 08:48:57;;;;;;;0.10;0.10;;;;;;;8.38;73.49;100335.88;5044551;28;20026;-80
2024/03/01 08:51:24;;;;;;;0.30;0.30;;;;;;;8.39;73.17;100320.94;5056231;28;20025;-79
2024/03/01 08:54:08;;;;;;;0.20;0.20;;;;;;;8.51;73.28;100325.13;5057445;28;20033;-80
2024/03/01 08:56:36;;;;;;;0.10;0.10;;;;;;;8.55;72.95;100324.19;5056362;28;20029;-79
2024/03/01 08:59:27;;;;;;;0.20;0.20;;;;;;;8.58;73.22;100317.06;5049149;28;20034;-80
2024/03/01 09:01:55;;;;;;;0.68;0.68;;;;;;;8.62;73.03;100323.13;5045355;28;20021;-78
2024/03/01 09:07:17;;;;;;;0.10;0.10;;;;;;;8.79;72.24;100316.66;5099461;27;1205981;-80
2024/03/01 09:09:46;;;;;;;0.32;0.32;;;;;;;8.83;72.38;100318.31;5115847;28;20433;-80
2024/03/01 09:12:21;;;;;;;0.10;0.10;;;;;;;8.91;72.43;100313.75;5124381;28;20506;-80
2024/03/01 09:14:48;;;;;;;0.20;0.20;;;;;;;8.98;72.26;100319.75;5115468;28;20070;-78
2024/03/01 09:17:14;;;;;;;0.10;0.10;;;;;;;9.11;72.20;100315.06;5110056;28;20069;-78
2024/03/01 09:19:47;;;;;;;0.17;0.17;;;;;;;9.15;71.58;100311.47;5110609;28;20055;-78
2024/03/01 09:22:16;;;;;;;0.20;0.20;;;;;;;9.19;71.62;100307.84;5110772;28;20103;-79
2024/03/01 09:24:44;;;;;;;0.30;0.30;;;;;;;9.19;71.03;100308.69;5111191;28;20030;-79
2024/03/01 09:30:14;;;;;;;0.10;0.10;;;;;;;9.32;69.53;100311.94;5112653;27;20917;-79
2024/03/01 09:32:41;;;;;;;0.73;0.73;;;;;;;9.35;69.23;100317.16;5112168;28;20046;-79
2024/03/01 09:35:10;;;;;;;0.13;0.13;;;;;;;9.31;68.31;100326.06;5112521;28;20035;-79
2024/03/01 09:37:36;;;;;;;0.10;0.10;;;;;;;9.42;68.73;100330.22;5113490;28;20024;-79
2024/03/01 09:40:45;;;;;;;0.10;0.10;;;;;;;9.47;67.48;100337.16;5114697;28;20099;-79
2024/03/01 09:48:44;;;;;;;0.20;0.20;;;;;;;9.51;67.51;100316.81;5095533;28;20329;-80
2024/03/01 09:51:30;;;;;;;0.10;0.10;;;;;;;9.63;65.84;100303.28;5095703;28;20032;-80
2024/03/01 09:57:09;;;;;;;0.10;0.10;;;;;;;9.82;66.15;100303.69;5114534;27;20466;-80
2024/03/01 10:13:33;;;;;;;0.20;0.20;;;;;;;10.04;65.45;100290.75;5115808;27;20803;-79
2024/03/01 10:16:39;;;;;;;0.20;0.20;;;;;;;10.12;64.90;100273.78;5115189;28;20031;-79
2024/03/01 10:25:10;;;;;;;0.10;0.10;;;;;;;10.29;63.92;100246.84;5096977;27;1892892;-80
2024/03/01 10:33:26;;;;;;;0.10;0.10;;;;;;;10.46;62.85;100225.22;5113651;27;20423;-79
2024/03/01 10:41:42;;;;;;;0.10;0.10;;;;;;;10.35;61.96;100218.44;5095088;27;20384;-79
2024/03/01 10:44:26;;;;;;;0.17;0.17;;;;;;;10.53;62.06;100202.94;5090280;28;20036;-79
2024/03/01 10:47:13;;;;;;;0.17;0.17;;;;;;;10.61;61.87;100198.25;5093855;28;20074;-79
2024/03/01 10:49:54;;;;;;;0.10;0.10;;;;;;;10.75;62.08;100179.28;5096711;28;20495;-79
2024/03/01 10:52:23;;;;;;;0.35;0.35;;;;;;;10.75;62.05;100202.25;5105253;28;20063;-79
2024/03/01 10:54:54;;;;;;;0.10;0.10;;;;;;;10.75;61.78;100191.66;5106406;28;20110;-79
2024/03/01 10:57:21;;;;;;;0.10;0.10;;;;;;;10.84;61.59;100194.91;5106440;28;20087;-79
2024/03/01 10:59:58;;;;;;;0.15;0.15;;;;;;;10.99;62.05;100188.25;5098362;28;20020;-79
2024/03/01 11:02:33;;;;;;;0.20;0.20;;;;;;;11.06;61.35;100178.28;5105231;28;20032;-79
2024/03/01 11:05:10;;;;;;;0.10;0.10;;;;;;;11.11;60.94;100175.50;5095372;28;20475;-78
2024/03/01 11:13:07;;;;;;;0.10;0.10;;;;;;;11.32;61.24;100158.84;5071102;27;20383;-80
2024/03/01 11:15:37;;;;;;;0.00;0.00;;;;;;;11.48;61.12;100137.97;5062803;28;20086;-79
2024/03/01 11:18:09;;;;;;;0.25;0.25;;;;;;;11.56;60.66;100129.75;5070910;28;20424;-78
2024/03/01 11:20:44;;;;;;;0.20;0.20;;;;;;;11.64;58.61;100122.38;5063173;28;20020;-79
2024/03/01 11:23:28;;;;;;;0.10;0.10;;;;;;;11.74;59.13;100133.53;5071418;28;20116;-79
2024/03/01 11:26:16;;;;;;;0.10;0.10;;;;;;;11.61;57.40;100129.59;5068517;28;20087;-79
2024/03/01 11:28:54;;;;;;;0.17;0.17;;;;;;;11.60;58.55;100130.50;5072344;28;20071;-79
2024/03/01 11:31:26;;;;;;;0.20;0.20;;;;;;;11.78;57.68;100126.34;5058349;28;20021;-79
2024/03/01 11:33:58;;;;;;;0.35;0.30;;;;;;;11.65;57.98;100113.50;5051035;28;20120;-79
2024/03/01 11:42:12;;;;;;;0.10;0.10;;;;;;;11.79;58.53;100085.59;5116809;27;20388;-80
2024/03/01 12:04:08;;;;;;;0.13;0.13;;;;;;;12.28;55.51;100054.53;5117719;27;20140;-79
2024/03/01 12:14:53;;;;;;;0.10;0.10;;;;;;;12.28;53.82;100059.84;5122466;27;1229192;-79
2024/03/01 12:17:38;;;;;;;0.10;0.10;;;;;;;12.29;54.44;100058.91;5130507;28;20032;-79
2024/03/01 12:20:09;;;;;;;0.10;0.10;;;;;;;12.16;55.25;100062.97;5118265;28;20023;-79
2024/03/01 12:25:22;;;;;;;0.10;0.10;;;;;;;12.11;53.67;100051.66;5049392;28;20729;-78
2024/03/01 12:28:29;;;;;;;0.10;0.10;;;;;;;11.90;53.19;100054.22;5042520;28;20033;-78
2024/03/01 12:31:25;;;;;;;0.10;0.10;;;;;;;11.82;54.19;100061.59;5051031;28;20025;-79
2024/03/01 12:34:22;;;;;;;0.10;0.10;;;;;;;11.84;54.17;100067.72;5057875;28;20101;-79
2024/03/01 12:39:50;;;;;;;0.10;0.10;;;;;;;11.62;54.73;100051.72;5125194;27;1211452;-80
2024/03/01 12:42:34;;;;;;;0.20;0.20;;;;;;;11.60;53.94;100062.41;5139141;27;20031;-80
2024/03/01 12:45:27;;;;;;;0.20;0.20;;;;;;;11.48;53.21;100055.75;5134113;28;20024;-79
2024/03/01 12:53:57;;;;;;;0.10;0.10;;;;;;;11.47;53.65;100055.81;5152428;27;20895;-79
2024/03/01 13:04:53;;;;;;;0.10;0.10;;;;;;;11.23;53.80;100061.06;5118829;27;20388;-80
2024/03/01 13:07:22;;;;;;;0.32;0.32;;;;;;;11.20;53.97;100069.13;5109412;28;20023;-79
2024/03/01 13:09:51;;;;;;;0.10;0.10;;;;;;;11.24;54.31;100068.13;5117771;28;20053;-79
2024/03/01 13:12:20;;;;;;;0.10;0.10;;;;;;;11.23;54.89;100060.22;5118093;28;20099;-79
2024/03/01 13:15:13;;;;;;;0.10;0.10;;;;;;;11.30;54.52;100062.59;5117369;28;20043;-79
2024/03/01 13:17:59;;;;;;;;;;;;;;;11.25;54.37;100061.88;5110207;28;20474;-78
2024/03/01 13:25:55;;;;;;;0.10;0.10;;;;;;;11.29;54.74;100052.91;5080034;28;20492;-79
2024/03/01 13:28:26;;;;;;;0.20;0.20;;;;;;;11.24;54.05;100048.66;5077558;28;20040;-79
2024/03/01 13:30:59;;;;;;;0.10;0.10;;;;;;;11.38;54.56;100050.84;5077068;28;20025;-79
2024/03/01 13:33:46;;;;;;;0.10;0.10;;;;;;;11.46;53.88;100032.84;5070653;28;20028;-79
2024/03/01 13:36:20;;;;;;;0.10;0.10;;;;;;;11.42;53.65;100034.75;5069109;28;20059;-78